Aviation Digital Data Service (ADDS)

Output produced by METARs form (0451 UTC 23 February 2017)
found at http://aviationweather.gov/adds/metars/
 
KOAJ 222354Z 2300/2324 00000KT P6SM SCT040 BKN200 
     FM230900 00000KT 3SM BR SCT050 BKN150 
     FM231300 12006KT P6SM SCT050 BKN120 AMD LTD TO CLD VIS AND WIND